Accueil
METAR-TAF:

METAR-TAF

Aéroports :

Aéroport de Gênes-Christophe Colomb

Gênes, Italie

latitude: 44-25N, longitude: 008-51E, altitude: 2 m

Observation

Le bulletin a été fait il y a 21 minutes, à 18:50 UTC
Vent 4 kt de sud-ouest
Température 26°C
Humidité 74%
Pression 1016 hPa
Visibilité 10 km ou plus
pas de nuages en-dessous de 1500 mètres et pas de cumulonimbus.

METAR: LIMJ 151850Z 23004KT CAVOK 26/21 Q1016

Heure: 21:11 (19:11 UTC)

Prévision

Le bulletin a été fait il y a 2 heures et 11 minutes, à 17:00 UTC
Prévision valable du 15 à 18 UTC au 16 à 18 UTC
Vent 5 kt de direction variable
Visibilité 10 km ou plus
Quelques nuages à une hauteur de 2000 ft

TAF: LIMJ 151700Z 1518/1618 VRB05KT 9999 FEW020

Observations et prévisions météorologiques de plus de 4000 aéroports (messages METAR et TAF).

Les stations disponibles sont représentées par des disques jaunes et rouges sur la carte.

Passer la souris dessus pour voir le nom de la station.

Cliquer dessus pour voir les observations et prévisions météorologiques.

Pour changer de carte: cliquez sur les boutons verts avec une croix noire pour zoomer, sur le bouton vert avec un tiret pour effectuer un zoom arrière, ou sur les flèches vertes pour les cartes adjacentes.


METAR-TAF: